createdAt,value
2022-12-29T00:02:32.974Z,7.60
2022-12-29T00:07:34.623Z,8.38
2022-12-29T00:12:54.507Z,8.95
2022-12-29T00:17:55.947Z,9.05
2022-12-29T00:23:15.767Z,7.95
2022-12-29T00:28:36.102Z,7.90
2022-12-29T00:33:56.218Z,8.40
2022-12-29T00:39:20.218Z,7.93
2022-12-29T00:44:21.646Z,8.02
2022-12-29T00:49:31.918Z,8.48
2022-12-29T00:54:35.383Z,8.68
2022-12-29T00:59:41.305Z,8.30
2022-12-29T01:04:42.812Z,7.72
2022-12-29T01:10:03.271Z,7.40
2022-12-29T01:15:05.299Z,8.07
2022-12-29T01:20:07.408Z,8.20
2022-12-29T01:25:09.112Z,8.38
2022-12-29T01:30:11.005Z,8.48
2022-12-29T01:35:12.526Z,8.82
2022-12-29T01:40:14.236Z,9.73
2022-12-29T01:45:18.319Z,9.60
2022-12-29T01:50:27.140Z,9.85
2022-12-29T01:55:32.303Z,10.73
2022-12-29T02:00:34.074Z,9.80
2022-12-29T02:05:43.188Z,10.55
2022-12-29T02:10:45.753Z,9.48
2022-12-29T02:16:30.210Z,10.13
2022-12-29T02:21:50.578Z,10.32
2022-12-29T02:27:28.052Z,10.50
2022-12-29T02:32:39.051Z,10.82
2022-12-29T02:38:15.252Z,11.80
2022-12-29T02:43:28.850Z,11.88
2022-12-29T02:48:47.361Z,12.63
2022-12-29T02:54:07.956Z,11.63
2022-12-29T02:59:10.599Z,12.70
2022-12-29T03:04:54.609Z,11.85
2022-12-29T03:10:15.487Z,12.48
2022-12-29T03:15:46.089Z,12.57
2022-12-29T03:20:58.983Z,12.05
2022-12-29T03:26:05.640Z,12.30
2022-12-29T03:31:10.116Z,13.15
2022-12-29T03:41:25.695Z,12.52
2022-12-29T03:46:27.288Z,11.43
2022-12-29T03:51:28.814Z,11.85
2022-12-29T03:56:30.485Z,11.60
2022-12-29T04:01:32.121Z,10.60
2022-12-29T04:06:33.666Z,10.63
2022-12-29T04:11:35.168Z,9.90
2022-12-29T04:16:36.897Z,10.18
2022-12-29T04:21:38.525Z,9.73
2022-12-29T04:26:40.247Z,9.70
2022-12-29T04:31:41.728Z,9.32
2022-12-29T04:36:43.516Z,9.40
2022-12-29T04:41:44.980Z,9.50
2022-12-29T04:46:46.571Z,9.75
2022-12-29T04:51:48.155Z,11.65
2022-12-29T04:56:49.687Z,9.80
2022-12-29T05:01:51.251Z,9.15
2022-12-29T05:06:52.842Z,8.93
2022-12-29T05:11:54.361Z,9.57
2022-12-29T05:16:55.871Z,8.85
2022-12-29T05:21:57.349Z,9.15
2022-12-29T05:26:58.994Z,10.00
2022-12-29T05:32:00.495Z,8.95
2022-12-29T05:37:03.518Z,9.82
2022-12-29T05:42:05.073Z,9.75
2022-12-29T05:47:06.593Z,9.55
2022-12-29T05:52:08.121Z,8.32
2022-12-29T05:57:09.860Z,7.00
2022-12-29T06:02:11.664Z,6.25
2022-12-29T06:07:13.257Z,5.70
2022-12-29T06:12:15.403Z,5.22
2022-12-29T06:17:16.833Z,3.95
2022-12-29T06:22:18.725Z,2.88
2022-12-29T06:27:20.328Z,3.60
2022-12-29T06:32:22.098Z,3.40
2022-12-29T06:37:23.548Z,3.58
2022-12-29T06:42:25.011Z,3.08
2022-12-29T06:47:26.454Z,2.80
2022-12-29T06:52:29.418Z,2.42
2022-12-29T06:57:30.917Z,2.35
2022-12-29T07:02:32.472Z,1.90
2022-12-29T07:07:34.016Z,2.38
2022-12-29T07:12:35.544Z,2.60
2022-12-29T07:17:36.960Z,1.80
2022-12-29T07:22:39.493Z,1.45
2022-12-29T07:27:40.970Z,1.17
2022-12-29T07:32:42.645Z,1.00
2022-12-29T07:37:44.234Z,0.80
2022-12-29T07:42:45.852Z,0.80
2022-12-29T07:47:50.801Z,0.93
2022-12-29T07:52:52.260Z,0.80
2022-12-29T07:57:55.358Z,1.33
2022-12-29T08:02:56.807Z,1.27
2022-12-29T08:07:58.405Z,0.77
2022-12-29T08:12:59.853Z,0.85
2022-12-29T08:18:01.941Z,1.02
2022-12-29T08:23:03.828Z,1.10
2022-12-29T08:28:05.303Z,1.13
2022-12-29T08:33:06.776Z,1.20
2022-12-29T08:38:09.403Z,1.48
2022-12-29T08:43:10.859Z,1.42
2022-12-29T08:48:12.326Z,1.60
2022-12-29T08:53:14.184Z,1.20
2022-12-29T08:58:17.420Z,2.13
2022-12-29T09:03:31.486Z,1.38
2022-12-29T09:08:40.702Z,1.38
2022-12-29T09:13:42.377Z,1.38
2022-12-29T09:18:45.199Z,1.73
2022-12-29T09:23:46.720Z,1.35
2022-12-29T09:28:48.304Z,1.88
2022-12-29T09:33:49.756Z,2.33
2022-12-29T09:38:51.182Z,1.52
2022-12-29T09:44:19.410Z,2.15
2022-12-29T09:49:27.320Z,1.70
2022-12-29T09:54:34.979Z,1.75
2022-12-29T09:59:42.557Z,1.45
2022-12-29T10:04:45.211Z,1.33
2022-12-29T10:10:11.897Z,1.50
2022-12-29T10:15:36.005Z,1.80
2022-12-29T10:20:52.376Z,1.70
2022-12-29T10:25:57.439Z,2.30
2022-12-29T10:31:06.737Z,2.30
2022-12-29T10:36:25.339Z,1.88
2022-12-29T10:41:29.525Z,1.65
2022-12-29T10:46:35.555Z,1.83
2022-12-29T10:51:42.202Z,2.20
2022-12-29T10:56:48.236Z,1.60
2022-12-29T11:02:02.069Z,1.45
2022-12-29T11:07:10.575Z,1.92
2022-12-29T11:12:24.187Z,1.83
2022-12-29T11:17:25.685Z,1.30
2022-12-29T11:22:29.459Z,1.60
2022-12-29T11:27:31.219Z,2.53
2022-12-29T11:32:32.709Z,1.90
2022-12-29T11:37:41.060Z,1.88
2022-12-29T11:42:49.542Z,1.70
2022-12-29T11:48:02.055Z,2.42
2022-12-29T11:53:31.933Z,2.08
2022-12-29T11:58:37.389Z,2.97
2022-12-29T12:03:51.930Z,3.08
2022-12-29T12:09:03.892Z,2.13
2022-12-29T12:14:12.978Z,1.70
2022-12-29T12:19:35.794Z,2.15
2022-12-29T12:24:56.445Z,2.25
2022-12-29T12:30:03.919Z,1.92
2022-12-29T12:35:05.731Z,2.60
2022-12-29T12:40:26.058Z,1.73
2022-12-29T12:45:52.915Z,3.67
2022-12-29T12:51:14.816Z,2.85
2022-12-29T12:56:51.966Z,1.63
2022-12-29T13:02:09.966Z,2.25
2022-12-29T13:07:23.845Z,1.42
2022-12-29T13:12:41.173Z,1.83
2022-12-29T13:18:11.266Z,2.00
2022-12-29T13:23:25.457Z,2.30
2022-12-29T13:28:37.060Z,2.42
2022-12-29T13:34:03.764Z,2.10
2022-12-29T13:39:21.277Z,3.72
2022-12-29T13:44:36.430Z,2.70
2022-12-29T13:49:39.115Z,2.50
2022-12-29T13:55:08.348Z,2.50
2022-12-29T14:00:19.200Z,2.45
2022-12-29T14:05:23.438Z,3.20
2022-12-29T14:10:36.393Z,2.67
2022-12-29T14:15:44.647Z,3.30
2022-12-29T14:21:00.274Z,3.35
2022-12-29T14:26:07.849Z,3.13
2022-12-29T14:31:15.305Z,3.95
2022-12-29T14:36:27.646Z,3.33
2022-12-29T14:41:36.107Z,2.97
2022-12-29T14:46:48.133Z,4.15
2022-12-29T14:51:52.852Z,3.85
2022-12-29T15:02:13.174Z,3.95
2022-12-29T15:07:16.115Z,3.25
2022-12-29T15:12:31.699Z,4.82
2022-12-29T15:17:35.503Z,2.53
2022-12-29T15:22:37.028Z,3.50
2022-12-29T15:27:39.730Z,3.50
2022-12-29T15:32:44.345Z,3.45
2022-12-29T15:43:28.768Z,2.65
2022-12-29T15:48:31.958Z,2.57
2022-12-29T15:53:34.593Z,2.42
2022-12-29T15:58:49.457Z,3.95
2022-12-29T16:03:52.884Z,3.20
2022-12-29T16:09:15.485Z,3.45
2022-12-29T16:14:25.763Z,2.65
2022-12-29T16:19:37.039Z,3.67
2022-12-29T16:24:41.221Z,2.50
2022-12-29T16:29:42.802Z,2.33
2022-12-29T16:34:46.080Z,2.90
2022-12-29T16:39:47.583Z,2.83
2022-12-29T16:44:49.055Z,2.42
2022-12-29T16:49:53.948Z,3.05
2022-12-29T16:54:59.165Z,2.38
2022-12-29T17:00:04.981Z,2.08
2022-12-29T17:05:08.785Z,2.00
2022-12-29T17:10:11.414Z,2.53
2022-12-29T17:15:20.580Z,1.98
2022-12-29T17:20:23.497Z,2.85
2022-12-29T17:25:37.341Z,1.85
2022-12-29T17:30:40.912Z,2.47
2022-12-29T17:35:42.824Z,2.63
2022-12-29T17:40:44.749Z,3.63
2022-12-29T17:45:52.696Z,2.00
2022-12-29T17:50:54.594Z,2.08
2022-12-29T17:55:56.535Z,2.00
2022-12-29T18:01:00.035Z,2.10
2022-12-29T18:06:02.351Z,2.78
2022-12-29T18:11:05.193Z,1.80
2022-12-29T18:16:07.934Z,1.60
2022-12-29T18:21:20.118Z,2.10
2022-12-29T18:26:31.420Z,3.53
2022-12-29T18:31:34.252Z,3.08
2022-12-29T18:36:35.732Z,2.88
2022-12-29T18:41:37.181Z,2.90
2022-12-29T18:46:38.734Z,3.78
2022-12-29T18:51:40.257Z,4.93
2022-12-29T18:56:41.807Z,3.08
2022-12-29T19:01:43.571Z,5.22
2022-12-29T19:06:45.687Z,3.53
2022-12-29T19:11:47.179Z,3.88
2022-12-29T19:16:49.482Z,4.05
2022-12-29T19:21:56.338Z,3.95
2022-12-29T19:26:57.953Z,3.75
2022-12-29T19:31:59.499Z,4.22
2022-12-29T19:37:01.122Z,4.13
2022-12-29T19:42:05.485Z,3.10
2022-12-29T19:52:08.545Z,4.57
2022-12-29T19:57:10.058Z,4.93
2022-12-29T20:02:23.568Z,5.35
2022-12-29T20:07:25.965Z,4.93
2022-12-29T20:12:29.434Z,2.88
2022-12-29T20:18:02.475Z,4.35
2022-12-29T20:22:52.529Z,4.75
2022-12-29T20:27:54.157Z,2.55
2022-12-29T20:32:55.693Z,2.40
2022-12-29T20:37:57.273Z,1.60
2022-12-29T20:42:58.941Z,2.60
2022-12-29T20:48:00.382Z,1.35
2022-12-29T20:53:02.003Z,1.67
2022-12-29T21:03:25.729Z,1.90
2022-12-29T21:08:30.012Z,2.10
2022-12-29T21:13:31.997Z,1.98
2022-12-29T21:18:34.569Z,1.30
2022-12-29T21:23:39.568Z,2.22
2022-12-29T21:28:41.605Z,1.77
2022-12-29T21:33:43.098Z,1.88
2022-12-29T21:38:44.815Z,2.20
2022-12-29T21:44:07.414Z,2.50
2022-12-29T21:49:09.206Z,1.60
2022-12-29T21:54:31.127Z,2.42
2022-12-29T21:59:51.354Z,3.08
2022-12-29T22:05:11.596Z,2.15
2022-12-29T22:10:32.239Z,2.40
2022-12-29T22:15:37.264Z,2.30
2022-12-29T22:20:38.854Z,1.92
2022-12-29T22:25:41.019Z,3.03
2022-12-29T22:30:42.814Z,2.00
2022-12-29T22:35:44.934Z,2.40
2022-12-29T22:40:46.418Z,3.22
2022-12-29T22:45:47.894Z,2.95
2022-12-29T22:50:49.325Z,2.33
2022-12-29T22:55:50.806Z,3.78
2022-12-29T23:00:52.234Z,3.22
2022-12-29T23:05:59.149Z,2.38
2022-12-29T23:11:01.235Z,2.90
2022-12-29T23:16:03.090Z,3.38
2022-12-29T23:21:05.633Z,2.95
2022-12-29T23:26:07.879Z,2.85
2022-12-29T23:31:09.951Z,2.58
2022-12-29T23:36:11.841Z,2.83
2022-12-29T23:41:13.345Z,3.28
2022-12-29T23:46:18.532Z,3.40
2022-12-29T23:51:20.191Z,3.17
2022-12-29T23:56:23.089Z,2.95
